Time;durP1;ratioP1;P1;durP2;ratioP2;P2;SDS_P1;SDS_P2;PMS_P1;PMS_P2;Temp;Humidity;BMP_temperature;BMP_pressure;BME280_temperature;BME280_humidity;BME280_pressure;Samples;Min_cycle;Max_cycle;Signal;HPM_P1;HPM_P2
2023/04/04 00:01:28;;;;;;;9.48;2.10;;;;;;;1.40;51.53;101838.03;10281401;28;20057;-81
2023/04/04 00:06:33;;;;;;;8.32;2.10;;;;;;;1.33;51.95;101847.00;10284554;28;20093;-81
2023/04/04 00:11:36;;;;;;;4.43;2.28;;;;;;;1.18;52.23;101847.28;10284042;28;20474;-81
2023/04/04 00:16:39;;;;;;;3.10;2.08;;;;;;;1.10;52.69;101839.50;10286249;28;20062;-81
2023/04/04 00:21:43;;;;;;;3.80;1.92;;;;;;;1.02;53.19;101837.00;10289221;28;20062;-81
2023/04/04 00:26:46;;;;;;;4.18;2.13;;;;;;;1.09;53.22;101831.56;10285196;28;20556;-77
2023/04/04 00:31:49;;;;;;;3.65;1.95;;;;;;;1.00;53.39;101835.28;10299879;28;20055;-78
2023/04/04 00:36:53;;;;;;;7.55;1.92;;;;;;;0.94;53.47;101833.59;10281856;28;20051;-77
2023/04/04 00:41:57;;;;;;;8.60;2.75;;;;;;;0.93;53.22;101838.91;10268838;28;20506;-78
2023/04/04 00:47:00;;;;;;;6.15;2.25;;;;;;;0.95;53.93;101829.19;10276607;28;20109;-77
2023/04/04 00:52:06;;;;;;;4.60;2.17;;;;;;;1.02;54.10;101825.53;10278734;28;20152;-78
2023/04/04 00:57:09;;;;;;;7.30;2.65;;;;;;;0.84;54.53;101827.59;10286351;28;20094;-77
2023/04/04 01:02:12;;;;;;;7.35;2.78;;;;;;;0.75;54.69;101832.19;10275348;28;20520;-77
2023/04/04 01:07:16;;;;;;;8.35;2.78;;;;;;;0.79;55.27;101834.72;10288758;28;20043;-77
2023/04/04 01:12:19;;;;;;;5.35;2.97;;;;;;;0.91;55.41;101822.22;10288196;28;20129;-77
2023/04/04 01:17:23;;;;;;;7.20;3.15;;;;;;;0.89;55.26;101819.59;10296293;28;20043;-78
2023/04/04 01:22:30;;;;;;;4.10;2.63;;;;;;;0.85;55.41;101815.25;10305217;28;20038;-77
2023/04/04 01:27:34;;;;;;;4.03;2.30;;;;;;;0.86;54.95;101817.00;10295775;28;20489;-78
2023/04/04 01:32:50;;;;;;;6.10;2.53;;;;;;;0.96;55.78;101818.59;10280359;28;20058;-77
2023/04/04 01:38:05;;;;;;;7.15;3.55;;;;;;;1.03;56.06;101820.19;10284068;28;20043;-78
2023/04/04 01:43:09;;;;;;;7.18;2.70;;;;;;;0.94;56.05;101817.72;10273665;28;20070;-78
2023/04/04 01:48:15;;;;;;;6.65;2.40;;;;;;;0.92;56.07;101818.66;10283358;28;20051;-78
2023/04/04 01:53:23;;;;;;;8.10;3.10;;;;;;;0.83;56.63;101815.28;10289933;28;20098;-80
2023/04/04 01:58:27;;;;;;;5.60;2.80;;;;;;;0.74;56.02;101811.91;10281340;28;20566;-78
2023/04/04 02:03:30;;;;;;;7.10;2.92;;;;;;;0.63;56.43;101803.28;10272548;28;20134;-78
2023/04/04 02:08:33;;;;;;;7.32;2.85;;;;;;;0.80;57.01;101795.94;10282315;28;20050;-78
2023/04/04 02:13:40;;;;;;;6.75;2.80;;;;;;;0.88;56.39;101794.03;10287280;28;20074;-78
2023/04/04 02:18:43;;;;;;;8.20;3.13;;;;;;;0.78;56.60;101795.09;10286577;28;20035;-78
2023/04/04 02:23:46;;;;;;;5.95;3.10;;;;;;;0.75;56.95;101801.31;10288579;28;20105;-79
2023/04/04 02:28:51;;;;;;;6.90;3.35;;;;;;;0.71;56.92;101801.38;10310578;28;20039;-78
2023/04/04 02:33:53;;;;;;;7.93;3.03;;;;;;;0.60;56.22;101799.81;10275029;28;20110;-78
2023/04/04 02:38:57;;;;;;;6.25;2.95;;;;;;;0.58;56.74;101791.03;10291907;28;20465;-78
2023/04/04 02:44:02;;;;;;;5.53;2.95;;;;;;;0.55;56.94;101795.47;10283897;28;20141;-78
2023/04/04 02:49:07;;;;;;;6.05;3.03;;;;;;;0.48;57.21;101797.38;10281074;28;20043;-78
2023/04/04 02:54:11;;;;;;;5.03;3.17;;;;;;;0.47;57.50;101782.41;10281891;28;20049;-78
2023/04/04 02:59:20;;;;;;;6.35;2.80;;;;;;;0.41;57.13;101778.97;10288461;28;20066;-78
2023/04/04 03:04:22;;;;;;;11.20;2.70;;;;;;;0.46;58.08;101771.84;10292834;28;20482;-78
2023/04/04 03:09:25;;;;;;;6.68;2.92;;;;;;;0.40;57.81;101767.53;10300848;28;20054;-78
2023/04/04 03:14:29;;;;;;;5.65;2.60;;;;;;;0.28;58.00;101768.63;10273139;28;20043;-78
2023/04/04 03:19:33;;;;;;;4.80;3.38;;;;;;;0.19;57.72;101758.16;10284743;28;20039;-78
2023/04/04 03:31:26;;;;;;;6.63;2.83;;;;;;;0.00;57.96;101760.25;10235318;29;20036;-79
2023/04/04 03:36:29;;;;;;;5.63;2.85;;;;;;;-0.22;58.44;101757.06;10207002;28;20060;-81
2023/04/04 03:41:32;;;;;;;5.93;2.80;;;;;;;-0.36;59.16;101745.78;10198702;29;20048;-81
2023/04/04 03:46:36;;;;;;;6.25;3.40;;;;;;;-0.45;60.08;101753.84;10201185;29;20468;-79
2023/04/04 03:51:39;;;;;;;7.05;3.35;;;;;;;-0.36;59.73;101762.50;10220446;29;20499;-80
2023/04/04 03:56:41;;;;;;;6.05;2.53;;;;;;;-0.30;59.52;101754.50;10197834;29;20047;-78
2023/04/04 04:01:46;;;;;;;5.18;2.65;;;;;;;-0.38;59.76;101752.88;10202121;29;20152;-79
2023/04/04 04:06:48;;;;;;;5.82;2.88;;;;;;;-0.39;60.06;101749.34;10193943;29;20048;-80
2023/04/04 04:11:51;;;;;;;6.03;3.00;;;;;;;-0.42;59.91;101735.31;10222827;28;20048;-80
2023/04/04 04:16:55;;;;;;;5.38;2.80;;;;;;;-0.42;59.91;101732.69;10207208;29;20079;-79
2023/04/04 04:21:58;;;;;;;4.55;2.92;;;;;;;-0.39;59.98;101732.63;10218611;29;20063;-78
2023/04/04 04:27:02;;;;;;;9.93;3.50;;;;;;;-0.41;59.88;101737.94;10200569;29;20083;-79
2023/04/04 04:32:07;;;;;;;7.53;3.55;;;;;;;-0.48;60.25;101738.91;10195548;29;20483;-81
2023/04/04 04:37:16;;;;;;;6.07;3.60;;;;;;;-0.49;60.83;101739.81;10194980;29;20047;-80
2023/04/04 04:42:23;;;;;;;8.20;3.50;;;;;;;-0.53;60.92;101743.38;10196505;29;20040;-79
2023/04/04 04:47:32;;;;;;;10.73;4.00;;;;;;;-0.55;60.96;101737.25;10188865;29;20048;-79
2023/04/04 04:52:39;;;;;;;8.05;3.22;;;;;;;-0.57;60.98;101739.06;10202265;29;20046;-79
2023/04/04 04:57:42;;;;;;;6.95;2.97;;;;;;;-0.55;61.11;101738.13;10199603;29;20077;-80
2023/04/04 05:02:54;;;;;;;6.57;3.50;;;;;;;-0.63;61.22;101744.38;10198027;29;20047;-79
2023/04/04 05:08:07;;;;;;;6.13;3.20;;;;;;;-0.62;61.36;101740.88;10215997;29;20043;-79
2023/04/04 05:13:13;;;;;;;7.03;3.90;;;;;;;-0.59;61.21;101741.69;10200608;29;20050;-79
2023/04/04 05:18:21;;;;;;;6.25;3.88;;;;;;;-0.53;61.50;101744.25;10199317;29;20099;-80
2023/04/04 05:23:25;;;;;;;7.65;4.45;;;;;;;-0.43;61.08;101746.78;10217121;28;20074;-81
2023/04/04 05:28:28;;;;;;;9.88;4.00;;;;;;;-0.37;61.38;101754.63;10194703;29;20058;-80
2023/04/04 05:33:36;;;;;;;6.80;4.05;;;;;;;-0.29;61.83;101764.19;10218451;29;20075;-78
2023/04/04 05:38:46;;;;;;;9.65;4.50;;;;;;;-0.11;61.12;101752.50;10189206;29;20478;-79
2023/04/04 05:43:53;;;;;;;7.05;3.85;;;;;;;-0.06;61.19;101765.59;10199006;29;20076;-81
2023/04/04 05:49:00;;;;;;;8.35;4.07;;;;;;;0.07;61.64;101766.31;10223686;28;20422;-80
2023/04/04 05:54:06;;;;;;;8.70;3.97;;;;;;;0.29;61.44;101774.75;10212746;29;20047;-77
2023/04/04 05:59:10;;;;;;;11.55;4.43;;;;;;;0.29;61.30;101778.28;10226324;29;20050;-79
2023/04/04 06:04:26;;;;;;;9.50;4.50;;;;;;;0.26;61.01;101780.97;10205285;29;20052;-79
2023/04/04 06:09:31;;;;;;;19.55;6.90;;;;;;;0.33;61.38;101789.66;10211518;29;20040;-79
2023/04/04 06:14:35;;;;;;;24.58;7.68;;;;;;;0.35;61.45;101788.75;10218512;29;20046;-79
2023/04/04 06:19:41;;;;;;;14.10;7.78;;;;;;;0.56;61.53;101800.75;10200718;29;20091;-79
2023/04/04 06:24:44;;;;;;;15.07;6.00;;;;;;;0.77;60.94;101799.53;10219691;29;20060;-77
2023/04/04 06:29:48;;;;;;;8.02;5.38;;;;;;;0.90;60.08;101801.94;10221750;29;20187;-79
2023/04/04 06:34:55;;;;;;;12.02;5.28;;;;;;;1.08;60.36;101804.25;10199630;29;20055;-77
2023/04/04 06:40:13;;;;;;;16.63;4.80;;;;;;;0.68;60.28;101806.72;10207867;29;20044;-79
2023/04/04 06:45:18;;;;;;;12.55;5.65;;;;;;;0.78;61.45;101809.19;10209429;29;20051;-81
2023/04/04 06:50:22;;;;;;;12.75;4.80;;;;;;;0.54;65.08;101813.13;10198596;29;20040;-80
2023/04/04 06:55:27;;;;;;;10.38;5.75;;;;;;;1.41;63.68;101805.34;10206916;29;20046;-81
2023/04/04 07:00:30;;;;;;;12.90;5.10;;;;;;;1.84;61.42;101808.88;10215640;29;20052;-81
2023/04/04 07:05:38;;;;;;;12.10;5.70;;;;;;;2.01;58.74;101808.50;10202382;29;20072;-80
2023/04/04 07:10:41;;;;;;;11.75;4.70;;;;;;;2.59;57.42;101805.34;10223020;29;20123;-81
2023/04/04 07:15:47;;;;;;;8.27;3.28;;;;;;;2.79;56.16;101801.31;10198218;29;20082;-79
2023/04/04 07:20:51;;;;;;;7.63;3.90;;;;;;;3.39;56.79;101802.34;10201012;29;20100;-77
2023/04/04 07:25:54;;;;;;;7.65;3.22;;;;;;;3.93;53.80;101802.50;10211422;29;20084;-80
2023/04/04 07:30:59;;;;;;;6.82;3.35;;;;;;;4.31;51.35;101796.91;10193848;29;20095;-80
2023/04/04 07:36:04;;;;;;;6.68;3.47;;;;;;;5.11;50.43;101797.75;10204840;29;20056;-80
2023/04/04 07:41:10;;;;;;;6.85;3.40;;;;;;;5.58;48.62;101796.94;10206521;29;20078;-80
2023/04/04 07:46:13;;;;;;;7.38;2.85;;;;;;;5.75;45.99;101788.28;10200909;29;20052;-82
2023/04/04 07:51:19;;;;;;;6.03;3.53;;;;;;;5.89;46.20;101781.47;10205461;29;20044;-79
2023/04/04 07:56:22;;;;;;;8.93;3.30;;;;;;;6.25;45.30;101788.06;10201478;29;20043;-79
2023/04/04 08:01:25;;;;;;;6.80;3.08;;;;;;;6.53;43.91;101786.03;10197693;29;20530;-79
2023/04/04 08:06:29;;;;;;;6.20;2.92;;;;;;;6.93;43.61;101775.44;10207920;29;20117;-80
2023/04/04 08:11:32;;;;;;;6.57;2.85;;;;;;;6.68;43.06;101779.16;10182882;29;20511;-79
2023/04/04 08:16:35;;;;;;;5.15;2.95;;;;;;;7.27;43.47;101777.53;10168215;28;20160;-79
2023/04/04 08:21:39;;;;;;;6.18;3.60;;;;;;;7.89;41.98;101787.09;10189632;28;20048;-77
2023/04/04 08:26:42;;;;;;;6.78;3.40;;;;;;;7.28;40.18;101773.91;10175160;28;20082;-79
2023/04/04 08:31:53;;;;;;;4.95;2.75;;;;;;;7.78;42.67;101767.13;10184382;28;20207;-79
2023/04/04 08:36:58;;;;;;;4.10;2.13;;;;;;;8.47;39.38;101767.34;10186695;28;20055;-79
2023/04/04 08:42:04;;;;;;;5.38;2.72;;;;;;;8.57;38.74;101759.72;10169166;28;20055;-80
2023/04/04 08:47:09;;;;;;;5.90;2.05;;;;;;;7.89;38.19;101767.50;10163299;28;20055;-81
2023/04/04 08:52:18;;;;;;;3.08;1.88;;;;;;;7.53;38.03;101768.28;10167833;28;20203;-81
2023/04/04 08:57:21;;;;;;;2.67;1.70;;;;;;;7.70;38.65;101762.16;10180950;28;20466;-80
2023/04/04 09:02:29;;;;;;;4.45;2.25;;;;;;;8.34;39.93;101760.84;10161625;28;20062;-80
2023/04/04 09:07:33;;;;;;;3.70;2.10;;;;;;;8.86;36.88;101760.03;10168084;28;20048;-79
2023/04/04 09:12:44;;;;;;;5.80;2.63;;;;;;;8.34;36.95;101766.22;10220968;28;20054;-79
2023/04/04 09:17:47;;;;;;;3.13;2.10;;;;;;;8.66;37.50;101759.25;10197678;28;20064;-80
2023/04/04 09:22:52;;;;;;;5.88;2.60;;;;;;;8.55;37.79;101756.25;10182485;28;20537;-80
2023/04/04 09:27:56;;;;;;;5.28;2.40;;;;;;;8.46;37.74;101765.63;10178430;28;20047;-79
2023/04/04 09:33:05;;;;;;;5.72;2.17;;;;;;;8.69;37.72;101748.34;10164933;28;20141;-78
2023/04/04 09:38:09;;;;;;;4.63;2.05;;;;;;;9.00;37.04;101742.28;10216179;28;21245;-80
2023/04/04 09:43:13;;;;;;;5.28;1.98;;;;;;;10.57;34.50;101750.50;10213809;28;20043;-79
2023/04/04 09:48:26;;;;;;;6.40;2.85;;;;;;;11.21;33.96;101729.59;10202853;28;20066;-78
2023/04/04 09:53:30;;;;;;;;;;;;;;;11.39;34.45;101732.09;10212964;28;20058;-79
2023/04/04 09:58:34;;;;;;;8.10;2.30;;;;;;;10.90;33.56;101721.69;10199438;28;20006;-79
2023/04/04 10:03:38;;;;;;;8.25;2.40;;;;;;;10.87;35.28;101724.56;10214856;28;20055;-80
2023/04/04 10:08:44;;;;;;;6.07;2.55;;;;;;;10.41;33.25;101728.19;10210639;28;20200;-80
2023/04/04 10:13:46;;;;;;;3.15;1.92;;;;;;;10.50;34.89;101721.38;10208947;28;20193;-78
2023/04/04 10:18:50;;;;;;;4.10;2.10;;;;;;;11.42;33.82;101719.31;10207747;28;20102;-80
2023/04/04 10:23:56;;;;;;;4.05;1.35;;;;;;;12.02;33.29;101711.88;10213812;28;20047;-80
2023/04/04 10:28:59;;;;;;;4.45;1.90;;;;;;;11.50;32.25;101711.63;10207129;28;20134;-81
2023/04/04 10:34:11;;;;;;;2.70;1.55;;;;;;;12.28;31.58;101694.84;10204200;28;20430;-79
2023/04/04 10:39:23;;;;;;;4.90;2.22;;;;;;;12.66;29.90;101702.16;10208884;28;20054;-80
2023/04/04 10:44:30;;;;;;;4.90;1.67;;;;;;;13.19;29.85;101685.88;10202946;28;20087;-79
2023/04/04 10:49:35;;;;;;;4.88;1.55;;;;;;;12.78;29.09;101684.25;10254616;28;20040;-80
2023/04/04 10:54:40;;;;;;;2.97;1.42;;;;;;;12.13;28.60;101688.66;10207620;28;20178;-79
2023/04/04 10:59:56;;;;;;;6.60;2.08;;;;;;;13.09;28.23;101672.19;10209827;28;20047;-80
2023/04/04 11:05:10;;;;;;;4.82;1.70;;;;;;;14.74;27.37;101660.81;10211676;28;20138;-80
2023/04/04 11:10:20;;;;;;;2.80;1.60;;;;;;;15.68;25.86;101655.00;10200730;28;20101;-79
2023/04/04 11:15:25;;;;;;;5.25;1.90;;;;;;;15.85;25.56;101650.91;10214967;28;21371;-80
2023/04/04 11:20:33;;;;;;;3.53;1.75;;;;;;;15.43;24.93;101648.03;10224632;28;20550;-81
2023/04/04 11:25:39;;;;;;;2.72;1.77;;;;;;;14.96;25.40;101647.28;10210680;28;20059;-81
2023/04/04 11:30:47;;;;;;;5.30;1.70;;;;;;;15.89;24.64;101638.81;10203441;28;20051;-81
2023/04/04 11:35:50;;;;;;;2.35;1.55;;;;;;;15.18;27.25;101630.19;10209205;28;20062;-80
2023/04/04 11:40:55;;;;;;;3.45;1.90;;;;;;;15.11;26.35;101626.28;10181646;28;20780;-80
2023/04/04 11:46:07;;;;;;;4.22;1.83;;;;;;;15.23;27.06;101617.16;10179810;28;20673;-79
2023/04/04 11:51:11;;;;;;;3.43;1.83;;;;;;;15.25;27.33;101617.91;10163805;28;20051;-79
2023/04/04 11:56:16;;;;;;;5.05;2.03;;;;;;;15.31;25.65;101602.16;10164724;28;20056;-81
2023/04/04 12:01:20;;;;;;;6.28;2.03;;;;;;;15.50;26.25;101604.22;10169127;28;20043;-81
2023/04/04 12:06:24;;;;;;;3.15;2.20;;;;;;;16.32;26.49;101594.53;10155248;28;20582;-81
2023/04/04 12:11:29;;;;;;;2.88;1.98;;;;;;;17.07;26.30;101597.91;10175837;28;20138;-79
2023/04/04 12:16:32;;;;;;;3.53;2.05;;;;;;;16.85;26.01;101601.69;10170390;28;20056;-80
2023/04/04 12:21:35;;;;;;;4.68;1.95;;;;;;;15.65;26.46;101586.69;10168736;28;20593;-79
2023/04/04 12:26:41;;;;;;;2.83;1.92;;;;;;;15.93;27.33;101579.78;10192051;28;20070;-80
2023/04/04 12:31:46;;;;;;;4.18;2.08;;;;;;;16.22;26.41;101573.75;10160711;28;20721;-80
2023/04/04 12:36:52;;;;;;;5.25;2.13;;;;;;;16.20;26.99;101570.28;10175047;28;20137;-80
2023/04/04 12:41:58;;;;;;;6.50;2.17;;;;;;;16.64;26.53;101568.28;10169487;28;20402;-79
2023/04/04 12:47:03;;;;;;;4.53;2.03;;;;;;;16.35;24.60;101556.31;10209821;28;20047;-80
2023/04/04 12:52:08;;;;;;;3.72;2.08;;;;;;;16.57;25.41;101543.56;10204648;28;20735;-80
2023/04/04 12:57:17;;;;;;;5.57;2.60;;;;;;;16.56;26.07;101541.84;10203673;28;20499;-80
2023/04/04 13:02:22;;;;;;;5.13;2.22;;;;;;;17.28;24.60;101535.41;10249834;28;20115;-81
2023/04/04 13:07:27;;;;;;;5.40;2.40;;;;;;;17.18;25.12;101523.66;10224346;28;20083;-81
2023/04/04 13:12:57;;;;;;;2.70;2.03;;;;;;;17.55;24.64;101506.69;10197576;28;20075;-80
2023/04/04 13:18:14;;;;;;;4.13;2.67;;;;;;;17.91;23.51;101503.25;10212324;28;20051;-82
2023/04/04 13:23:17;;;;;;;5.45;2.20;;;;;;;15.74;26.04;101501.06;10208158;28;20817;-82
2023/04/04 13:28:21;;;;;;;6.00;2.72;;;;;;;16.42;25.45;101488.81;10209113;28;20054;-79
2023/04/04 13:33:24;;;;;;;2.97;1.75;;;;;;;16.86;25.38;101483.13;10212310;28;20051;-80
2023/04/04 13:38:27;;;;;;;3.40;2.13;;;;;;;16.52;24.02;101473.47;10205216;28;20047;-82
2023/04/04 13:43:31;;;;;;;6.50;2.10;;;;;;;16.91;24.92;101478.16;10215022;28;20126;-82
2023/04/04 13:48:34;;;;;;;7.57;2.20;;;;;;;16.63;24.41;101466.22;10211381;28;20058;-80
2023/04/04 13:53:37;;;;;;;3.70;2.10;;;;;;;17.01;24.58;101457.31;10213387;28;20057;-81
2023/04/04 13:58:41;;;;;;;4.53;2.10;;;;;;;16.83;25.30;101450.84;10213292;28;20055;-80
2023/04/04 14:03:44;;;;;;;2.50;1.70;;;;;;;16.45;24.76;101450.56;10231419;28;20134;-80
2023/04/04 14:08:47;;;;;;;3.40;2.10;;;;;;;17.22;25.06;101449.06;10214351;28;20051;-81
2023/04/04 14:13:51;;;;;;;4.95;2.25;;;;;;;17.35;24.20;101440.66;10241772;28;20048;-80
2023/04/04 14:18:55;;;;;;;5.57;2.05;;;;;;;16.64;24.12;101441.66;10226866;28;20056;-81
2023/04/04 14:23:57;;;;;;;4.03;2.20;;;;;;;15.92;25.81;101429.91;10220793;28;20070;-82
2023/04/04 14:29:02;;;;;;;4.63;2.33;;;;;;;16.05;24.72;101435.13;10222840;28;20055;-81
2023/04/04 14:34:05;;;;;;;7.13;2.90;;;;;;;16.05;25.47;101435.13;10213813;28;20054;-80
2023/04/04 14:39:08;;;;;;;4.63;2.25;;;;;;;16.15;25.12;101424.31;10221323;28;20066;-81
2023/04/04 14:44:13;;;;;;;4.03;2.05;;;;;;;15.86;25.51;101410.63;10215906;28;20142;-81
2023/04/04 14:49:15;;;;;;;5.45;2.00;;;;;;;15.96;24.44;101400.69;10216171;28;20073;-80
2023/04/04 14:54:18;;;;;;;3.50;2.03;;;;;;;16.11;25.81;101401.19;10219794;28;20118;-81
2023/04/04 14:59:22;;;;;;;2.95;2.35;;;;;;;15.97;25.41;101388.88;10216378;28;20054;-81
2023/04/04 15:04:26;;;;;;;8.57;2.30;;;;;;;16.02;25.16;101385.75;10217904;28;20058;-81
2023/04/04 15:09:29;;;;;;;3.38;2.22;;;;;;;16.11;25.73;101372.22;10216465;28;20056;-79
2023/04/04 15:14:33;;;;;;;2.90;2.47;;;;;;;16.07;24.98;101380.75;10220429;28;20035;-80
2023/04/04 15:19:36;;;;;;;5.00;2.22;;;;;;;15.91;24.84;101376.72;10204582;28;20048;-82
2023/04/04 15:24:39;;;;;;;3.60;1.80;;;;;;;16.21;24.95;101383.13;10168396;28;20131;-80
2023/04/04 15:29:43;;;;;;;3.60;1.95;;;;;;;15.93;25.34;101377.44;10172718;29;20543;-81
2023/04/04 15:34:46;;;;;;;2.58;2.05;;;;;;;15.98;23.84;101379.72;10167853;28;20407;-81
2023/04/04 15:39:49;;;;;;;2.60;1.80;;;;;;;15.97;24.41;101383.44;10180039;28;20059;-82
2023/04/04 15:44:58;;;;;;;3.45;1.90;;;;;;;15.87;24.22;101377.97;10157735;28;20408;-81
2023/04/04 15:50:00;;;;;;;4.22;1.73;;;;;;;16.21;24.06;101369.56;10167323;28;20055;-81
2023/04/04 15:55:06;;;;;;;4.50;2.20;;;;;;;16.31;24.24;101372.31;10167521;28;20060;-82
2023/04/04 16:00:12;;;;;;;4.22;2.30;;;;;;;15.91;24.32;101371.28;10163574;28;20051;-81
2023/04/04 16:05:14;;;;;;;4.07;1.95;;;;;;;15.81;23.94;101366.81;10166997;28;20188;-81
2023/04/04 16:10:17;;;;;;;3.38;2.35;;;;;;;15.26;24.95;101362.44;10154816;28;20051;-82
2023/04/04 16:15:21;;;;;;;4.60;2.10;;;;;;;14.81;25.39;101356.41;10164518;28;20047;-79
2023/04/04 16:20:25;;;;;;;6.40;2.50;;;;;;;14.35;26.69;101358.31;10158875;28;20491;-80
2023/04/04 16:25:28;;;;;;;6.78;2.47;;;;;;;13.07;27.74;101350.44;10158283;28;20088;-81
2023/04/04 16:30:32;;;;;;;3.05;2.30;;;;;;;12.34;28.46;101351.38;10166911;28;20126;-81
2023/04/04 16:35:36;;;;;;;2.65;2.13;;;;;;;11.71;29.53;101355.88;10166380;28;20048;-82
2023/04/04 16:40:39;;;;;;;4.35;2.50;;;;;;;11.06;29.85;101354.06;10158833;28;20064;-81
2023/04/04 16:45:43;;;;;;;5.72;2.63;;;;;;;10.73;30.63;101349.13;10158185;28;20044;-83
2023/04/04 16:50:46;;;;;;;6.28;3.15;;;;;;;10.79;31.29;101356.78;10177420;28;20085;-82
2023/04/04 16:55:48;;;;;;;;;;;;;;;10.59;31.03;101350.06;10174044;28;20195;-81
2023/04/04 17:00:53;;;;;;;4.25;3.00;;;;;;;10.35;31.85;101341.78;10174276;28;19926;-82
2023/04/04 17:05:58;;;;;;;4.07;2.78;;;;;;;10.01;32.00;101343.06;10171138;28;20708;-82
2023/04/04 17:11:01;;;;;;;5.95;3.50;;;;;;;9.99;32.93;101342.31;10187824;28;20084;-82
2023/04/04 17:16:06;;;;;;;4.20;3.30;;;;;;;9.82;33.18;101338.84;10173648;28;20044;-82
2023/04/04 17:21:09;;;;;;;6.38;3.28;;;;;;;9.54;33.28;101337.00;10177782;28;20047;-82
2023/04/04 17:26:12;;;;;;;4.90;2.92;;;;;;;9.35;33.67;101328.34;10174849;28;20526;-82
2023/04/04 17:31:17;;;;;;;4.68;3.50;;;;;;;8.96;34.83;101330.66;10200865;28;20052;-81
2023/04/04 17:36:20;;;;;;;3.97;3.03;;;;;;;8.69;35.08;101330.44;10176020;28;20163;-81
2023/04/04 17:41:23;;;;;;;3.78;2.63;;;;;;;8.51;35.71;101332.41;10173954;28;20052;-79
2023/04/04 17:46:27;;;;;;;5.60;3.10;;;;;;;8.34;36.64;101332.47;10186765;28;20052;-81
2023/04/04 17:51:30;;;;;;;4.85;3.20;;;;;;;8.12;36.76;101341.69;10203723;28;20071;-80
2023/04/04 17:56:33;;;;;;;4.97;2.70;;;;;;;7.98;37.25;101344.28;10218285;28;20051;-82
2023/04/04 18:01:39;;;;;;;7.45;2.65;;;;;;;7.84;36.99;101345.00;10181270;28;20054;-83
2023/04/04 18:06:42;;;;;;;5.60;3.40;;;;;;;7.81;37.57;101347.00;10167562;28;21156;-82
2023/04/04 18:11:45;;;;;;;6.43;3.60;;;;;;;7.65;37.75;101347.84;10172833;28;20227;-81
2023/04/04 18:16:49;;;;;;;7.50;3.75;;;;;;;7.51;37.93;101350.34;10170168;28;20719;-82
2023/04/04 18:21:53;;;;;;;6.40;2.95;;;;;;;7.38;37.58;101351.97;10175838;28;20059;-81
2023/04/04 18:26:56;;;;;;;3.05;2.47;;;;;;;7.27;37.56;101360.53;10160596;28;20052;-81
2023/04/04 18:32:01;;;;;;;6.43;2.90;;;;;;;7.12;37.62;101356.84;10173603;28;20047;-80
2023/04/04 18:37:05;;;;;;;5.50;2.72;;;;;;;7.04;37.71;101356.38;10175172;28;20132;-80
2023/04/04 18:42:09;;;;;;;9.68;4.60;;;;;;;6.98;37.82;101357.53;10169384;28;20099;-81
2023/04/04 18:47:13;;;;;;;7.25;3.95;;;;;;;6.95;37.81;101360.38;10173676;28;20131;-80
2023/04/04 18:52:16;;;;;;;6.63;3.53;;;;;;;6.85;37.89;101357.25;10180786;28;20058;-81
2023/04/04 18:57:19;;;;;;;9.88;4.00;;;;;;;6.76;38.35;101364.88;10166417;28;20048;-78
2023/04/04 19:02:23;;;;;;;9.82;5.18;;;;;;;6.72;38.74;101356.16;10179503;28;20615;-81
2023/04/04 19:07:27;;;;;;;12.13;6.18;;;;;;;6.63;39.01;101359.25;10163948;28;20575;-82
2023/04/04 19:12:30;;;;;;;13.07;5.03;;;;;;;6.64;38.80;101358.34;10166630;28;21189;-80
2023/04/04 19:17:35;;;;;;;12.00;5.65;;;;;;;6.67;39.49;101360.84;10161008;29;20107;-80
2023/04/04 19:22:37;;;;;;;18.65;7.10;;;;;;;6.60;39.63;101373.63;10166441;28;20052;-81
2023/04/04 19:27:40;;;;;;;12.15;4.78;;;;;;;6.60;39.66;101367.41;10168939;28;21834;-85
2023/04/04 19:32:44;;;;;;;8.48;4.97;;;;;;;6.59;40.12;101355.03;10175085;28;20095;-79
2023/04/04 19:37:47;;;;;;;17.20;6.93;;;;;;;6.56;40.53;101358.72;10204324;28;20531;-79
2023/04/04 19:42:50;;;;;;;12.98;5.82;;;;;;;6.55;40.80;101358.78;10222948;28;20734;-80
2023/04/04 19:47:54;;;;;;;12.93;6.25;;;;;;;6.40;41.45;101363.91;10205826;28;20174;-81
2023/04/04 19:52:57;;;;;;;10.20;4.72;;;;;;;6.38;41.82;101360.44;10206711;28;20149;-82
2023/04/04 19:58:01;;;;;;;8.23;4.10;;;;;;;6.36;42.04;101370.34;10212492;28;20051;-80
2023/04/04 20:03:07;;;;;;;10.00;4.43;;;;;;;6.28;42.26;101368.97;10210244;28;20419;-80
2023/04/04 20:08:10;;;;;;;8.13;3.85;;;;;;;6.24;42.47;101367.41;10211690;28;21243;-81
2023/04/04 20:13:13;;;;;;;6.45;4.03;;;;;;;6.13;42.43;101370.56;10197854;28;20052;-81
2023/04/04 20:18:22;;;;;;;7.75;5.22;;;;;;;6.03;42.41;101371.91;10207620;28;20395;-80
2023/04/04 20:23:26;;;;;;;8.75;4.85;;;;;;;6.03;42.26;101370.13;10206490;28;20057;-81
2023/04/04 20:28:29;;;;;;;10.02;5.18;;;;;;;6.06;41.82;101364.66;10201969;28;20051;-80
2023/04/04 20:33:35;;;;;;;12.80;4.88;;;;;;;5.99;41.54;101367.69;10205415;28;20528;-81
2023/04/04 20:38:40;;;;;;;8.95;4.88;;;;;;;5.99;41.64;101359.69;10200830;28;20059;-82
2023/04/04 20:43:50;;;;;;;7.18;3.47;;;;;;;6.01;41.53;101357.81;10211566;28;20147;-82
2023/04/04 20:48:55;;;;;;;5.10;3.20;;;;;;;6.00;42.07;101351.59;10206192;28;20098;-79
2023/04/04 20:54:00;;;;;;;6.38;3.10;;;;;;;5.96;42.26;101352.69;10211641;28;20055;-81
2023/04/04 20:59:06;;;;;;;7.88;3.35;;;;;;;5.93;42.55;101347.50;10205013;28;20133;-79
2023/04/04 21:04:23;;;;;;;8.55;3.80;;;;;;;5.87;42.91;101361.09;10237873;28;20043;-79
2023/04/04 21:09:27;;;;;;;6.30;3.95;;;;;;;5.86;43.26;101359.38;10237843;28;20070;-81
2023/04/04 21:14:36;;;;;;;7.38;4.30;;;;;;;5.85;43.57;101354.97;10246016;29;20495;-82
2023/04/04 21:19:40;;;;;;;5.13;3.88;;;;;;;5.76;43.51;101345.59;10247734;28;20630;-83
2023/04/04 21:24:43;;;;;;;6.75;4.25;;;;;;;5.67;43.81;101351.34;10248717;28;20069;-81
2023/04/04 21:29:45;;;;;;;8.25;4.32;;;;;;;5.50;44.14;101344.09;10266287;28;20039;-79
2023/04/04 21:34:50;;;;;;;13.35;5.13;;;;;;;5.35;44.23;101343.00;10283173;28;20036;-77
2023/04/04 21:39:58;;;;;;;7.75;4.57;;;;;;;5.15;44.25;101340.31;10268469;28;20046;-81
2023/04/04 21:45:01;;;;;;;7.35;4.70;;;;;;;5.04;44.66;101343.44;10252524;29;20075;-81
2023/04/04 21:50:07;;;;;;;8.35;4.63;;;;;;;4.98;44.72;101335.69;10244496;29;20047;-82
2023/04/04 21:55:10;;;;;;;8.43;4.85;;;;;;;4.91;44.76;101335.09;10248868;28;20447;-80
2023/04/04 22:00:14;;;;;;;8.80;4.30;;;;;;;4.84;45.25;101325.63;10246550;28;20496;-80
2023/04/04 22:05:18;;;;;;;8.60;4.60;;;;;;;4.86;45.30;101325.56;10266597;28;20494;-81
2023/04/04 22:10:26;;;;;;;7.55;4.40;;;;;;;4.55;45.47;101314.41;10247322;29;20036;-80
2023/04/04 22:15:29;;;;;;;10.90;5.40;;;;;;;4.26;45.11;101320.88;10249918;29;20095;-82
2023/04/04 22:20:33;;;;;;;6.43;3.65;;;;;;;4.20;44.79;101317.59;10237960;29;20581;-83
2023/04/04 22:25:36;;;;;;;8.07;4.80;;;;;;;4.23;44.89;101315.69;10241626;28;20071;-82
2023/04/04 22:30:40;;;;;;;8.68;4.75;;;;;;;4.26;46.41;101315.56;10249896;28;20046;-80
2023/04/04 22:35:45;;;;;;;6.57;4.80;;;;;;;4.23;45.98;101318.34;10267678;28;20077;-83
2023/04/04 22:40:48;;;;;;;10.93;4.80;;;;;;;4.27;46.49;101314.63;10247790;28;20047;-81
2023/04/04 22:45:52;;;;;;;9.63;4.85;;;;;;;4.32;46.04;101320.63;10245490;28;20106;-79
2023/04/04 22:50:57;;;;;;;8.85;4.35;;;;;;;4.07;46.17;101309.25;10246748;28;20055;-81
2023/04/04 22:56:00;;;;;;;6.93;4.40;;;;;;;3.90;46.68;101305.44;10237096;29;20044;-83
2023/04/04 23:01:03;;;;;;;8.25;4.18;;;;;;;3.85;46.84;101311.88;10243529;29;20083;-79
2023/04/04 23:06:07;;;;;;;6.70;4.50;;;;;;;3.71;47.35;101307.94;10239815;28;20050;-81
2023/04/04 23:11:10;;;;;;;8.63;4.55;;;;;;;3.71;47.59;101299.97;10241334;29;20044;-83
2023/04/04 23:16:13;;;;;;;6.75;5.05;;;;;;;3.75;47.73;101299.84;10233907;29;20422;-81
2023/04/04 23:21:17;;;;;;;11.32;5.07;;;;;;;3.71;48.06;101307.94;10245077;28;20098;-82
2023/04/04 23:26:20;;;;;;;8.98;6.00;;;;;;;3.67;48.04;101301.00;10241155;28;20048;-81
2023/04/04 23:31:24;;;;;;;11.85;6.15;;;;;;;3.57;48.31;101298.75;10218149;29;20052;-78
2023/04/04 23:36:28;;;;;;;11.63;5.80;;;;;;;3.49;48.83;101301.69;10231419;29;20048;-79